createdAt,value
2018-11-11T00:00:52.567Z,11.88
2018-11-11T00:03:20.834Z,11.80
2018-11-11T00:05:49.093Z,11.97
2018-11-11T00:08:17.377Z,12.90
2018-11-11T00:10:45.590Z,12.35
2018-11-11T00:13:13.922Z,11.18
2018-11-11T00:15:42.165Z,11.97
2018-11-11T00:18:10.429Z,12.65
2018-11-11T00:20:39.933Z,10.98
2018-11-11T00:23:08.141Z,12.50
2018-11-11T00:25:36.510Z,13.18
2018-11-11T00:28:04.739Z,11.35
2018-11-11T00:30:33.011Z,11.80
2018-11-11T00:33:01.223Z,12.20
2018-11-11T00:35:29.514Z,13.10
2018-11-11T00:37:57.721Z,10.35
2018-11-11T00:40:26.079Z,11.60
2018-11-11T00:42:54.353Z,10.45
2018-11-11T00:45:22.577Z,10.05
2018-11-11T00:47:50.778Z,9.93
2018-11-11T00:50:19.050Z,9.25
2018-11-11T00:52:47.326Z,9.40
2018-11-11T00:55:16.732Z,7.97
2018-11-11T00:57:45.435Z,8.38
2018-11-11T01:00:16.502Z,7.80
2018-11-11T01:02:45.301Z,8.18
2018-11-11T01:05:14.048Z,8.23
2018-11-11T01:07:42.841Z,8.73
2018-11-11T01:10:13.572Z,7.80
2018-11-11T01:12:42.654Z,7.12
2018-11-11T01:15:12.256Z,6.12
2018-11-11T01:17:40.533Z,7.25
2018-11-11T01:20:10.553Z,6.70
2018-11-11T01:22:39.076Z,7.30
2018-11-11T01:25:09.246Z,6.75
2018-11-11T01:27:37.629Z,5.72
2018-11-11T01:30:06.180Z,6.25
2018-11-11T01:32:34.402Z,6.45
2018-11-11T01:35:02.748Z,6.10
2018-11-11T01:37:31.105Z,5.40
2018-11-11T01:39:59.333Z,5.80
2018-11-11T01:42:27.609Z,5.47
2018-11-11T01:44:55.833Z,5.03
2018-11-11T01:47:24.137Z,5.22
2018-11-11T01:49:52.541Z,5.17
2018-11-11T01:52:20.814Z,5.85
2018-11-11T01:54:49.034Z,5.15
2018-11-11T01:57:17.262Z,5.08
2018-11-11T01:59:45.451Z,4.03
2018-11-11T02:02:13.714Z,5.17
2018-11-11T02:04:42.038Z,4.83
2018-11-11T02:07:10.249Z,5.00
2018-11-11T02:09:38.547Z,4.67
2018-11-11T02:12:06.783Z,5.05
2018-11-11T02:14:35.316Z,4.55
2018-11-11T02:17:03.637Z,4.95
2018-11-11T02:19:31.994Z,5.70
2018-11-11T02:22:00.211Z,5.03
2018-11-11T02:24:28.465Z,4.87
2018-11-11T02:26:56.742Z,4.85
2018-11-11T02:29:24.937Z,4.40
2018-11-11T02:31:53.222Z,5.00
2018-11-11T02:34:21.429Z,4.78
2018-11-11T02:36:49.693Z,4.90
2018-11-11T02:39:17.914Z,5.45
2018-11-11T02:41:46.129Z,4.90
2018-11-11T02:44:14.350Z,4.75
2018-11-11T02:46:42.580Z,5.33
2018-11-11T02:49:10.765Z,4.92
2018-11-11T02:51:39.020Z,4.35
2018-11-11T02:54:07.273Z,5.22
2018-11-11T02:56:35.517Z,5.42
2018-11-11T02:59:03.769Z,5.35
2018-11-11T03:01:32.026Z,4.20
2018-11-11T03:04:00.258Z,5.70
2018-11-11T03:06:28.462Z,4.50
2018-11-11T03:08:56.726Z,4.45
2018-11-11T03:11:24.933Z,3.62
2018-11-11T03:13:53.155Z,4.80
2018-11-11T03:16:21.428Z,3.95
2018-11-11T03:18:49.651Z,4.00
2018-11-11T03:21:17.873Z,3.90
2018-11-11T03:23:46.137Z,4.92
2018-11-11T03:26:14.372Z,2.92
2018-11-11T03:28:42.649Z,4.25
2018-11-11T03:31:10.938Z,4.17
2018-11-11T03:33:39.274Z,3.90
2018-11-11T03:36:07.530Z,5.15
2018-11-11T03:38:35.751Z,3.92
2018-11-11T03:41:04.049Z,4.03
2018-11-11T03:43:32.351Z,4.12
2018-11-11T03:46:00.642Z,3.85
2018-11-11T03:48:28.934Z,3.52
2018-11-11T03:50:57.385Z,3.42
2018-11-11T03:53:25.611Z,4.12
2018-11-11T03:55:53.869Z,4.10
2018-11-11T03:58:22.100Z,3.60
2018-11-11T04:00:50.361Z,4.47
2018-11-11T04:03:18.617Z,3.92
2018-11-11T04:05:46.823Z,3.75
2018-11-11T04:08:15.069Z,4.40
2018-11-11T04:10:43.343Z,4.40
2018-11-11T04:13:11.569Z,4.72
2018-11-11T04:15:39.816Z,4.45
2018-11-11T04:18:08.078Z,4.47
2018-11-11T04:20:36.342Z,3.90
2018-11-11T04:23:05.032Z,4.40
2018-11-11T04:25:33.304Z,4.30
2018-11-11T04:28:01.602Z,4.33
2018-11-11T04:30:29.854Z,4.75
2018-11-11T04:32:58.126Z,4.97
2018-11-11T04:35:26.334Z,4.10
2018-11-11T04:37:54.533Z,4.70
2018-11-11T04:40:22.729Z,3.37
2018-11-11T04:42:50.954Z,4.95
2018-11-11T04:45:19.205Z,4.55
2018-11-11T04:47:47.453Z,3.42
2018-11-11T04:50:16.861Z,4.15
2018-11-11T04:52:45.676Z,3.85
2018-11-11T04:55:13.877Z,4.58
2018-11-11T04:57:42.605Z,3.00
2018-11-11T05:00:12.165Z,4.58
2018-11-11T05:02:40.798Z,3.45
2018-11-11T05:05:10.124Z,4.53
2018-11-11T05:07:38.414Z,5.05
2018-11-11T05:10:07.099Z,4.60
2018-11-11T05:12:35.652Z,3.92
2018-11-11T05:15:03.971Z,4.40
2018-11-11T05:17:32.224Z,5.47
2018-11-11T05:20:00.493Z,4.67
2018-11-11T05:22:28.794Z,3.98
2018-11-11T05:24:57.018Z,4.75
2018-11-11T05:27:25.285Z,4.17
2018-11-11T05:29:53.562Z,5.00
2018-11-11T05:32:21.832Z,6.00
2018-11-11T05:34:50.125Z,6.25
2018-11-11T05:37:18.454Z,5.97
2018-11-11T05:39:46.711Z,5.65
2018-11-11T05:42:14.946Z,9.33
2018-11-11T05:44:43.152Z,7.92
2018-11-11T05:47:11.442Z,7.78
2018-11-11T05:49:39.706Z,9.15
2018-11-11T05:52:08.001Z,7.95
2018-11-11T05:54:36.259Z,6.90
2018-11-11T05:57:04.579Z,6.97
2018-11-11T05:59:32.869Z,5.15
2018-11-11T06:02:01.131Z,5.78
2018-11-11T06:04:29.458Z,5.15
2018-11-11T06:06:57.655Z,4.50
2018-11-11T06:09:25.958Z,5.50
2018-11-11T06:11:54.212Z,5.37
2018-11-11T06:14:22.470Z,4.67
2018-11-11T06:16:50.749Z,5.37
2018-11-11T06:19:19.013Z,5.05
2018-11-11T06:21:47.294Z,4.75
2018-11-11T06:24:15.586Z,4.60
2018-11-11T06:26:43.834Z,5.40
2018-11-11T06:29:12.046Z,4.67
2018-11-11T06:31:40.294Z,4.87
2018-11-11T06:34:08.709Z,5.25
2018-11-11T06:36:36.954Z,5.05
2018-11-11T06:39:07.642Z,5.25
2018-11-11T06:41:35.925Z,5.10
2018-11-11T06:44:04.153Z,5.17
2018-11-11T06:46:32.455Z,4.62
2018-11-11T06:49:00.786Z,5.20
2018-11-11T06:51:29.033Z,5.42
2018-11-11T06:53:57.305Z,4.95
2018-11-11T06:56:25.533Z,5.62
2018-11-11T06:58:53.789Z,4.90
2018-11-11T07:01:22.155Z,4.75
2018-11-11T07:04:00.589Z,6.55
2018-11-11T07:06:29.343Z,4.33
2018-11-11T07:08:57.649Z,4.75
2018-11-11T07:11:26.120Z,3.80
2018-11-11T07:13:54.421Z,4.08
2018-11-11T07:16:22.674Z,4.00
2018-11-11T07:18:50.973Z,3.95
2018-11-11T07:21:19.210Z,3.80
2018-11-11T07:23:47.685Z,3.05
2018-11-11T07:26:15.915Z,3.65
2018-11-11T07:28:44.214Z,3.27
2018-11-11T07:31:12.491Z,3.55
2018-11-11T07:33:40.813Z,3.95
2018-11-11T07:36:10.163Z,2.90
2018-11-11T07:38:38.445Z,2.90
2018-11-11T07:41:06.765Z,3.08
2018-11-11T07:43:35.341Z,3.58
2018-11-11T07:46:04.078Z,4.20
2018-11-11T07:48:32.360Z,3.98
2018-11-11T07:51:00.798Z,3.98
2018-11-11T07:53:29.283Z,4.12
2018-11-11T07:55:57.554Z,4.25
2018-11-11T07:58:25.937Z,5.33
2018-11-11T08:00:54.290Z,5.30
2018-11-11T08:03:22.626Z,4.75
2018-11-11T08:05:51.002Z,5.45
2018-11-11T08:08:19.189Z,4.72
2018-11-11T08:10:58.696Z,5.60
2018-11-11T08:13:27.045Z,5.03
2018-11-11T08:15:55.328Z,5.25
2018-11-11T08:18:23.573Z,4.47
2018-11-11T08:20:51.817Z,4.00
2018-11-11T08:23:20.152Z,2.92
2018-11-11T08:25:48.390Z,3.60
2018-11-11T08:28:16.626Z,3.40
2018-11-11T08:30:44.903Z,3.50
2018-11-11T08:33:13.374Z,3.25
2018-11-11T08:35:41.641Z,3.08
2018-11-11T08:38:09.969Z,3.17
2018-11-11T08:40:38.340Z,3.00
2018-11-11T08:43:06.550Z,3.95
2018-11-11T08:45:34.775Z,2.98
2018-11-11T08:48:03.223Z,2.98
2018-11-11T08:50:31.499Z,3.08
2018-11-11T08:52:59.708Z,3.27
2018-11-11T08:55:28.038Z,2.75
2018-11-11T08:57:56.252Z,2.77
2018-11-11T09:00:24.598Z,3.60
2018-11-11T09:02:52.869Z,3.00
2018-11-11T09:05:21.065Z,2.55
2018-11-11T09:07:49.671Z,3.20
2018-11-11T09:10:17.885Z,3.10
2018-11-11T09:12:46.173Z,3.22
2018-11-11T09:15:15.137Z,3.10
2018-11-11T09:17:43.830Z,2.40
2018-11-11T09:20:13.405Z,3.35
2018-11-11T09:22:41.809Z,2.85
2018-11-11T09:25:10.524Z,2.67
2018-11-11T09:27:39.703Z,2.87
2018-11-11T09:30:10.047Z,3.10
2018-11-11T09:32:38.462Z,3.30
2018-11-11T09:35:07.030Z,3.15
2018-11-11T09:37:35.210Z,3.00
2018-11-11T09:40:03.659Z,2.70
2018-11-11T09:42:31.962Z,2.60
2018-11-11T09:45:00.392Z,2.70
2018-11-11T09:47:28.690Z,2.90
2018-11-11T09:49:56.977Z,2.35
2018-11-11T09:52:26.168Z,3.30
2018-11-11T09:54:54.442Z,2.30
2018-11-11T09:57:22.665Z,2.30
2018-11-11T09:59:50.932Z,2.33
2018-11-11T10:02:19.194Z,2.80
2018-11-11T10:04:53.955Z,2.20
2018-11-11T10:08:27.237Z,2.60
2018-11-11T10:10:59.919Z,2.47
2018-11-11T10:13:51.970Z,2.10
2018-11-11T10:16:25.771Z,2.20
2018-11-11T10:19:01.362Z,2.52
2018-11-11T10:21:51.254Z,2.80
2018-11-11T10:24:30.733Z,2.05
2018-11-11T10:27:04.425Z,2.47
2018-11-11T10:29:44.270Z,2.45
2018-11-11T10:32:29.072Z,1.87
2018-11-11T10:35:02.377Z,2.15
2018-11-11T10:37:40.593Z,1.75
2018-11-11T10:40:17.477Z,1.80
2018-11-11T10:42:51.204Z,2.30
2018-11-11T10:45:23.990Z,1.82
2018-11-11T10:47:55.434Z,2.20
2018-11-11T10:50:27.993Z,2.17
2018-11-11T10:52:56.258Z,2.02
2018-11-11T10:55:24.514Z,2.50
2018-11-11T10:57:52.714Z,2.27
2018-11-11T11:00:26.407Z,2.35
2018-11-11T11:02:54.641Z,1.57
2018-11-11T11:05:22.943Z,2.75
2018-11-11T11:07:51.537Z,2.27
2018-11-11T11:10:19.779Z,2.70
2018-11-11T11:12:48.021Z,2.35
2018-11-11T11:15:16.343Z,2.58
2018-11-11T11:17:44.578Z,2.40
2018-11-11T11:20:12.851Z,2.30
2018-11-11T11:22:41.147Z,2.95
2018-11-11T11:25:10.602Z,2.67
2018-11-11T11:27:45.486Z,2.30
2018-11-11T11:30:14.316Z,1.65
2018-11-11T11:32:42.556Z,2.40
2018-11-11T11:35:11.281Z,7.97
2018-11-11T11:37:39.910Z,1.90
2018-11-11T11:40:09.209Z,2.60
2018-11-11T11:42:37.805Z,2.17
2018-11-11T11:45:06.962Z,2.22
2018-11-11T11:47:35.502Z,2.35
2018-11-11T11:50:04.027Z,2.27
2018-11-11T11:52:32.280Z,1.90
2018-11-11T11:55:00.488Z,2.55
2018-11-11T11:57:28.732Z,2.52
2018-11-11T11:59:57.040Z,2.77
2018-11-11T12:02:25.348Z,2.33
2018-11-11T12:04:53.563Z,2.60
2018-11-11T12:07:21.937Z,2.45
2018-11-11T12:09:50.181Z,2.33
2018-11-11T12:12:18.428Z,2.10
2018-11-11T12:14:46.651Z,2.40
2018-11-11T12:17:14.907Z,2.17
2018-11-11T12:19:43.182Z,3.20
2018-11-11T12:22:11.430Z,2.72
2018-11-11T12:24:39.738Z,2.05
2018-11-11T12:27:07.941Z,2.72
2018-11-11T12:29:36.159Z,2.62
2018-11-11T12:32:04.495Z,2.85
2018-11-11T12:34:32.730Z,2.65
2018-11-11T12:37:00.998Z,2.75
2018-11-11T12:39:29.244Z,2.65
2018-11-11T12:41:57.414Z,2.58
2018-11-11T12:44:25.670Z,2.90
2018-11-11T12:46:54.050Z,3.52
2018-11-11T12:49:22.212Z,2.50
2018-11-11T12:51:50.466Z,2.65
2018-11-11T12:54:18.670Z,3.00
2018-11-11T12:56:46.899Z,3.20
2018-11-11T12:59:15.145Z,2.37
2018-11-11T13:01:43.494Z,2.30
2018-11-11T13:04:11.874Z,2.17
2018-11-11T13:06:40.184Z,2.55
2018-11-11T13:09:09.345Z,2.55
2018-11-11T13:11:37.636Z,2.40
2018-11-11T13:14:05.852Z,2.58
2018-11-11T13:16:34.116Z,2.80
2018-11-11T13:19:02.430Z,2.90
2018-11-11T13:21:30.649Z,1.98
2018-11-11T13:23:58.981Z,2.62
2018-11-11T13:26:27.209Z,3.22
2018-11-11T13:28:55.429Z,2.45
2018-11-11T13:31:23.706Z,2.15
2018-11-11T13:33:51.934Z,2.25
2018-11-11T13:36:20.231Z,2.58
2018-11-11T13:38:48.471Z,2.52
2018-11-11T13:41:16.758Z,2.58
2018-11-11T13:43:45.011Z,2.35
2018-11-11T13:46:13.439Z,2.62
2018-11-11T13:48:41.619Z,2.42
2018-11-11T13:51:09.858Z,2.92
2018-11-11T13:53:38.137Z,2.33
2018-11-11T13:56:06.421Z,2.77
2018-11-11T13:58:34.618Z,2.67
2018-11-11T14:01:02.868Z,2.90
2018-11-11T14:03:31.103Z,2.58
2018-11-11T14:05:59.335Z,2.37
2018-11-11T14:08:27.599Z,2.50
2018-11-11T14:10:55.875Z,2.45
2018-11-11T14:13:24.148Z,2.22
2018-11-11T14:15:52.471Z,2.10
2018-11-11T14:18:20.803Z,2.33
2018-11-11T14:20:48.973Z,2.08
2018-11-11T14:23:17.246Z,1.82
2018-11-11T14:25:45.529Z,2.08
2018-11-11T14:28:13.766Z,2.15
2018-11-11T14:30:41.992Z,1.52
2018-11-11T14:33:10.293Z,1.75
2018-11-11T14:35:38.564Z,2.52
2018-11-11T14:38:06.958Z,2.08
2018-11-11T14:40:35.150Z,1.98
2018-11-11T14:43:03.402Z,2.10
2018-11-11T14:45:31.730Z,2.25
2018-11-11T14:48:00.005Z,1.95
2018-11-11T14:50:28.314Z,1.87
2018-11-11T14:52:56.658Z,1.90
2018-11-11T14:55:27.243Z,2.90
2018-11-11T14:57:55.701Z,1.70
2018-11-11T15:00:25.372Z,2.75
2018-11-11T15:03:00.009Z,2.00
2018-11-11T15:05:28.282Z,1.75
2018-11-11T15:07:56.536Z,2.20
2018-11-11T15:10:24.783Z,1.80
2018-11-11T15:12:53.069Z,1.80
2018-11-11T15:15:22.275Z,1.65
2018-11-11T15:17:51.144Z,1.30
2018-11-11T15:20:19.505Z,2.05
2018-11-11T15:22:48.104Z,1.55
2018-11-11T15:25:17.690Z,1.67
2018-11-11T15:27:46.421Z,1.98
2018-11-11T15:30:16.219Z,2.10
2018-11-11T15:32:45.098Z,1.50
2018-11-11T15:35:13.341Z,1.92
2018-11-11T15:37:41.749Z,2.60
2018-11-11T15:40:16.773Z,1.80
2018-11-11T15:42:45.125Z,2.05
2018-11-11T15:45:16.282Z,1.87
2018-11-11T15:47:44.578Z,1.82
2018-11-11T15:50:17.977Z,2.30
2018-11-11T15:52:50.266Z,1.70
2018-11-11T15:55:19.501Z,2.25
2018-11-11T15:57:47.825Z,2.00
2018-11-11T16:00:27.121Z,2.52
2018-11-11T16:02:55.387Z,2.80
2018-11-11T16:05:23.614Z,1.70
2018-11-11T16:07:52.553Z,1.90
2018-11-11T16:10:23.043Z,2.27
2018-11-11T16:12:51.529Z,2.35
2018-11-11T16:15:22.034Z,2.30
2018-11-11T16:17:51.767Z,2.20
2018-11-11T16:20:21.425Z,2.25
2018-11-11T16:22:50.735Z,3.98
2018-11-11T16:25:19.122Z,2.70
2018-11-11T16:27:47.883Z,3.00
2018-11-11T16:30:22.000Z,3.50
2018-11-11T16:32:50.752Z,3.10
2018-11-11T16:35:20.241Z,2.85
2018-11-11T16:37:48.462Z,2.50
2018-11-11T16:40:19.144Z,2.95
2018-11-11T16:42:48.023Z,3.22
2018-11-11T16:45:18.743Z,3.27
2018-11-11T16:47:47.026Z,3.45
2018-11-11T16:50:17.371Z,2.92
2018-11-11T16:52:46.403Z,5.70
2018-11-11T16:55:16.063Z,3.52
2018-11-11T16:57:44.653Z,3.22
2018-11-11T17:00:14.919Z,4.17
2018-11-11T17:02:43.763Z,2.95
2018-11-11T17:05:16.346Z,3.50
2018-11-11T17:07:44.966Z,3.00
2018-11-11T17:10:15.731Z,3.87
2018-11-11T17:12:44.794Z,4.83
2018-11-11T17:15:14.422Z,3.33
2018-11-11T17:17:42.724Z,3.00
2018-11-11T17:20:13.351Z,3.50
2018-11-11T17:22:41.616Z,5.78
2018-11-11T17:25:11.347Z,3.27
2018-11-11T17:27:39.570Z,4.53
2018-11-11T17:30:13.822Z,6.12
2018-11-11T17:32:42.914Z,3.60
2018-11-11T17:35:11.478Z,5.47
2018-11-11T17:37:40.157Z,5.28
2018-11-11T17:40:10.137Z,4.55
2018-11-11T17:42:39.569Z,5.15
2018-11-11T17:45:08.326Z,4.03
2018-11-11T17:47:36.687Z,4.33
2018-11-11T17:50:07.695Z,8.45
2018-11-11T17:52:35.971Z,4.37
2018-11-11T17:55:04.291Z,5.40
2018-11-11T17:57:32.513Z,5.30
2018-11-11T18:00:00.822Z,3.92
2018-11-11T18:02:29.221Z,4.85
2018-11-11T18:04:57.482Z,3.60
2018-11-11T18:07:25.798Z,4.53
2018-11-11T18:09:54.105Z,4.30
2018-11-11T18:12:22.394Z,5.70
2018-11-11T18:14:50.904Z,4.67
2018-11-11T18:17:19.268Z,5.17
2018-11-11T18:19:47.462Z,13.20
2018-11-11T18:22:15.746Z,9.40
2018-11-11T18:24:43.997Z,11.88
2018-11-11T18:27:12.350Z,7.45
2018-11-11T18:29:40.453Z,6.20
2018-11-11T18:32:10.020Z,8.50
2018-11-11T18:34:38.693Z,9.28
2018-11-11T18:37:07.135Z,9.85
2018-11-11T18:39:35.502Z,7.35
2018-11-11T18:42:03.778Z,7.75
2018-11-11T18:44:32.010Z,7.90
2018-11-11T18:47:00.270Z,7.50
2018-11-11T18:49:28.493Z,7.92
2018-11-11T18:51:56.778Z,6.95
2018-11-11T18:54:25.014Z,8.58
2018-11-11T18:56:53.350Z,7.97
2018-11-11T18:59:21.609Z,7.87
2018-11-11T19:01:49.852Z,8.03
2018-11-11T19:04:18.135Z,6.83
2018-11-11T19:06:46.393Z,7.85
2018-11-11T19:09:14.724Z,9.90
2018-11-11T19:11:43.014Z,11.88
2018-11-11T19:14:11.327Z,11.68
2018-11-11T19:16:39.703Z,12.82
2018-11-11T19:19:08.416Z,8.90
2018-11-11T19:21:36.752Z,6.80
2018-11-11T19:24:05.206Z,5.85
2018-11-11T19:26:33.778Z,6.20
2018-11-11T19:29:02.018Z,6.40
2018-11-11T19:31:30.482Z,5.95
2018-11-11T19:33:58.891Z,6.40
2018-11-11T19:36:27.183Z,6.05
2018-11-11T19:38:55.607Z,5.20
2018-11-11T19:41:24.140Z,5.10
2018-11-11T19:43:52.318Z,4.75
2018-11-11T19:46:20.628Z,5.20
2018-11-11T19:48:49.421Z,4.80
2018-11-11T19:51:17.963Z,5.25
2018-11-11T19:53:46.241Z,5.37
2018-11-11T19:56:14.558Z,5.35
2018-11-11T19:58:43.110Z,7.17
2018-11-11T20:01:11.388Z,8.85
2018-11-11T20:03:39.915Z,8.50
2018-11-11T20:06:08.158Z,9.50
2018-11-11T20:08:37.245Z,8.25
2018-11-11T20:11:05.604Z,8.53
2018-11-11T20:13:33.831Z,8.90
2018-11-11T20:16:02.118Z,8.83
2018-11-11T20:18:30.380Z,9.68
2018-11-11T20:20:58.674Z,10.00
2018-11-11T20:23:26.968Z,11.28
2018-11-11T20:25:55.296Z,10.90
2018-11-11T20:28:23.631Z,11.10
2018-11-11T20:30:52.448Z,9.08
2018-11-11T20:33:20.699Z,9.50
2018-11-11T20:35:49.103Z,9.60
2018-11-11T20:38:17.311Z,9.75
2018-11-11T20:40:45.525Z,10.13
2018-11-11T20:43:13.860Z,10.15
2018-11-11T20:45:41.936Z,9.90
2018-11-11T20:48:10.248Z,10.68
2018-11-11T20:50:38.490Z,9.70
2018-11-11T20:53:07.204Z,9.98
2018-11-11T20:55:35.707Z,10.40
2018-11-11T20:58:04.305Z,10.53
2018-11-11T21:00:33.922Z,9.58
2018-11-11T21:03:02.224Z,9.98
2018-11-11T21:05:30.862Z,9.95
2018-11-11T21:07:59.174Z,10.00
2018-11-11T21:10:28.508Z,10.88
2018-11-11T21:12:57.078Z,10.10
2018-11-11T21:15:26.802Z,10.85
2018-11-11T21:17:55.202Z,10.60
2018-11-11T21:20:24.862Z,11.15
2018-11-11T21:22:53.123Z,11.00
2018-11-11T21:25:21.520Z,10.88
2018-11-11T21:27:50.552Z,12.18
2018-11-11T21:30:20.991Z,11.53
2018-11-11T21:32:49.597Z,11.05
2018-11-11T21:35:17.849Z,11.28
2018-11-11T21:37:46.131Z,11.20
2018-11-11T21:40:17.205Z,11.68
2018-11-11T21:42:46.457Z,10.90
2018-11-11T21:45:15.947Z,11.45
2018-11-11T21:47:44.672Z,10.30
2018-11-11T21:50:14.235Z,11.05
2018-11-11T21:52:44.124Z,10.65
2018-11-11T21:55:12.349Z,11.33
2018-11-11T21:57:40.594Z,11.25
2018-11-11T22:00:11.230Z,11.00
2018-11-11T22:02:39.486Z,11.90
2018-11-11T22:05:09.104Z,12.75
2018-11-11T22:07:37.609Z,10.78
2018-11-11T22:10:08.091Z,11.33
2018-11-11T22:12:36.349Z,12.18
2018-11-11T22:15:05.411Z,13.00
2018-11-11T22:17:33.687Z,12.18
2018-11-11T22:20:02.017Z,12.05
2018-11-11T22:22:30.355Z,11.97
2018-11-11T22:24:58.582Z,12.58
2018-11-11T22:27:26.913Z,13.65
2018-11-11T22:29:55.274Z,12.20
2018-11-11T22:32:23.514Z,13.30
2018-11-11T22:34:51.805Z,12.33
2018-11-11T22:37:20.081Z,12.37
2018-11-11T22:39:48.370Z,13.38
2018-11-11T22:42:16.648Z,13.93
2018-11-11T22:44:45.025Z,13.88
2018-11-11T22:47:13.338Z,14.25
2018-11-11T22:49:41.658Z,14.78
2018-11-11T22:52:09.920Z,15.58
2018-11-11T22:54:38.180Z,15.93
2018-11-11T22:57:06.613Z,15.80
2018-11-11T22:59:34.857Z,16.23
2018-11-11T23:02:03.134Z,16.50
2018-11-11T23:04:31.404Z,16.65
2018-11-11T23:06:59.778Z,16.00
2018-11-11T23:09:28.043Z,16.30
2018-11-11T23:11:56.325Z,16.05
2018-11-11T23:14:24.565Z,17.15
2018-11-11T23:16:52.825Z,17.50
2018-11-11T23:19:21.071Z,17.10
2018-11-11T23:21:49.537Z,16.70
2018-11-11T23:24:17.804Z,18.20
2018-11-11T23:26:46.251Z,18.65
2018-11-11T23:29:14.498Z,18.02
2018-11-11T23:31:42.747Z,18.23
2018-11-11T23:34:10.978Z,17.00
2018-11-11T23:36:39.294Z,19.57
2018-11-11T23:39:08.510Z,18.57
2018-11-11T23:41:36.757Z,19.98
2018-11-11T23:44:05.841Z,18.90
2018-11-11T23:46:34.969Z,20.62
2018-11-11T23:49:03.233Z,18.48
2018-11-11T23:51:31.491Z,20.00
2018-11-11T23:53:59.758Z,19.77
2018-11-11T23:56:27.978Z,20.05
2018-11-11T23:58:56.534Z,19.32
